createdAt,value
2017-11-30T00:00:34.605Z,99222.86
2017-11-30T00:03:03.804Z,99223.59
2017-11-30T00:05:33.030Z,99222.31
2017-11-30T00:08:02.240Z,99221.23
2017-11-30T00:10:31.516Z,99220.58
2017-11-30T00:13:00.735Z,99218.45
2017-11-30T00:15:29.958Z,99210.78
2017-11-30T00:17:59.171Z,99209.02
2017-11-30T00:20:29.133Z,99210.89
2017-11-30T00:22:58.356Z,99207.03
2017-11-30T00:25:27.548Z,99211.27
2017-11-30T00:27:56.798Z,99199.64
2017-11-30T00:30:26.008Z,99204.33
2017-11-30T00:32:55.226Z,99198.52
2017-11-30T00:35:25.200Z,99194.15
2017-11-30T00:37:55.189Z,99194.84
2017-11-30T00:40:24.473Z,99194.19
2017-11-30T00:43:11.492Z,99195.52
2017-11-30T00:45:40.808Z,99202.05
2017-11-30T00:48:10.144Z,99202.42
2017-11-30T00:50:39.333Z,99190.51
2017-11-30T00:53:08.585Z,99193.19
2017-11-30T00:55:37.791Z,99189.20
2017-11-30T00:58:07.026Z,99184.95
2017-11-30T01:00:36.987Z,99186.03
2017-11-30T01:03:06.230Z,99180.55
2017-11-30T01:05:36.223Z,99182.89
2017-11-30T01:08:05.453Z,99186.64
2017-11-30T01:10:34.672Z,99187.05
2017-11-30T01:13:03.965Z,99173.54
2017-11-30T01:15:33.201Z,99178.02
2017-11-30T01:18:02.408Z,99169.53
2017-11-30T01:20:31.625Z,99168.74
2017-11-30T01:23:01.613Z,99175.31
2017-11-30T01:25:30.828Z,99175.67
2017-11-30T01:28:00.064Z,99176.03
2017-11-30T01:30:29.270Z,99163.20
2017-11-30T01:32:58.500Z,99164.47
2017-11-30T01:35:27.713Z,99165.59
2017-11-30T01:37:56.917Z,99157.08
2017-11-30T01:40:26.960Z,99147.77
2017-11-30T01:42:56.177Z,99157.15
2017-11-30T01:45:25.389Z,99159.31
2017-11-30T01:47:54.630Z,99163.07
2017-11-30T01:50:23.833Z,99163.32
2017-11-30T01:52:53.829Z,99159.46
2017-11-30T01:55:23.025Z,99161.34
2017-11-30T01:57:52.225Z,99160.80
2017-11-30T02:00:21.482Z,99163.40
2017-11-30T02:02:50.667Z,99164.84
2017-11-30T02:05:19.957Z,99168.41
2017-11-30T02:07:49.170Z,99165.73
2017-11-30T02:10:18.377Z,99163.39
2017-11-30T02:12:47.607Z,99162.02
2017-11-30T02:15:16.836Z,99156.84
2017-11-30T02:17:46.790Z,99149.22
2017-11-30T02:20:16.081Z,99148.97
2017-11-30T02:22:45.261Z,99138.83
2017-11-30T02:25:14.481Z,99137.89
2017-11-30T02:27:43.663Z,99144.12
2017-11-30T02:30:12.917Z,99139.12
2017-11-30T02:32:42.153Z,99132.46
2017-11-30T02:35:11.401Z,99130.63
2017-11-30T02:37:41.034Z,99116.06
2017-11-30T02:40:10.250Z,99123.36
2017-11-30T02:42:39.420Z,99125.98
2017-11-30T02:45:08.617Z,99122.63
2017-11-30T02:47:37.831Z,99118.27
2017-11-30T02:50:07.776Z,99127.33
2017-11-30T02:52:36.985Z,99119.05
2017-11-30T02:55:06.187Z,99113.12
2017-11-30T02:57:35.413Z,99118.31
2017-11-30T03:00:04.599Z,99112.33
2017-11-30T03:02:33.815Z,99116.41
2017-11-30T03:05:03.004Z,99108.87
2017-11-30T03:07:32.214Z,99116.24
2017-11-30T03:10:01.393Z,99115.10
2017-11-30T03:12:30.658Z,99109.95
2017-11-30T03:14:59.893Z,99112.23
2017-11-30T03:17:29.088Z,99108.16
2017-11-30T03:19:58.333Z,99107.06
2017-11-30T03:22:27.593Z,99113.40
2017-11-30T03:24:56.789Z,99102.41
2017-11-30T03:27:25.990Z,99106.72
2017-11-30T03:29:55.206Z,99094.87
2017-11-30T03:32:25.178Z,99097.06
2017-11-30T03:34:54.452Z,99092.59
2017-11-30T03:37:23.633Z,99084.23
2017-11-30T03:39:52.898Z,99074.72
2017-11-30T03:42:22.111Z,99079.01
2017-11-30T03:44:52.116Z,99078.96
2017-11-30T03:47:21.297Z,99070.63
2017-11-30T03:49:50.752Z,99072.41
2017-11-30T03:52:19.954Z,99075.16
2017-11-30T03:54:49.161Z,99078.04
2017-11-30T03:57:18.396Z,99078.28
2017-11-30T03:59:47.643Z,99078.07
2017-11-30T04:02:16.852Z,99080.75
2017-11-30T04:04:46.086Z,99083.95
2017-11-30T04:07:15.293Z,99091.85
2017-11-30T04:09:44.620Z,99089.16
2017-11-30T04:12:13.834Z,99089.26
2017-11-30T04:14:43.143Z,99085.64
2017-11-30T04:17:13.127Z,99088.71
2017-11-30T04:19:43.085Z,99090.28
2017-11-30T04:22:12.328Z,99088.24
2017-11-30T04:24:41.603Z,99080.86
2017-11-30T04:27:10.824Z,99079.17
2017-11-30T04:29:40.810Z,99084.95
2017-11-30T04:32:10.012Z,99081.55
2017-11-30T04:34:39.214Z,99076.47
2017-11-30T04:37:08.538Z,99074.73
2017-11-30T04:39:38.537Z,99069.03
2017-11-30T04:42:07.733Z,99061.05
2017-11-30T04:44:36.933Z,99060.92
2017-11-30T04:47:06.116Z,99057.65
2017-11-30T04:49:35.324Z,99060.97
2017-11-30T04:52:04.526Z,99058.09
2017-11-30T04:54:33.752Z,99056.06
2017-11-30T04:57:02.953Z,99062.66
2017-11-30T04:59:32.173Z,99062.73
2017-11-30T05:02:01.363Z,99056.53
2017-11-30T05:04:30.575Z,99055.17
2017-11-30T05:06:59.792Z,99054.63
2017-11-30T05:09:29.019Z,99057.41
2017-11-30T05:11:58.205Z,99051.90
2017-11-30T05:14:27.457Z,99050.53
2017-11-30T05:16:56.660Z,99045.87
2017-11-30T05:19:25.857Z,99044.04
2017-11-30T05:21:55.085Z,99041.36
2017-11-30T05:24:24.292Z,99035.52
2017-11-30T05:26:53.525Z,99032.86
2017-11-30T05:29:22.728Z,99028.98
2017-11-30T05:31:51.950Z,99030.70
2017-11-30T05:34:21.925Z,99029.31
2017-11-30T05:36:51.962Z,99035.31
2017-11-30T05:39:21.170Z,99032.78
2017-11-30T05:41:50.451Z,99034.09
2017-11-30T05:44:19.700Z,99032.61
2017-11-30T05:46:48.945Z,99030.48
2017-11-30T05:49:18.206Z,99027.25
2017-11-30T05:51:47.461Z,99032.31
2017-11-30T05:54:16.677Z,99025.62
2017-11-30T05:56:46.745Z,99032.44
2017-11-30T05:59:16.708Z,99028.97
2017-11-30T06:01:45.941Z,99021.08
2017-11-30T06:04:15.156Z,99025.50
2017-11-30T06:06:44.401Z,99018.50
2017-11-30T06:09:13.635Z,99028.22
2017-11-30T06:11:43.632Z,99019.98
2017-11-30T06:14:12.864Z,99020.81
2017-11-30T06:16:42.826Z,99018.42
2017-11-30T06:19:12.013Z,99019.61
2017-11-30T06:21:41.215Z,99020.03
2017-11-30T06:24:10.453Z,99018.52
2017-11-30T06:26:39.659Z,99019.50
2017-11-30T06:29:11.092Z,99018.94
2017-11-30T06:31:40.397Z,99015.56
2017-11-30T06:34:09.667Z,99015.61
2017-11-30T06:36:38.836Z,99014.00
2017-11-30T06:39:08.059Z,99014.67
2017-11-30T06:41:37.245Z,99010.66
2017-11-30T06:44:06.451Z,99011.64
2017-11-30T06:46:35.645Z,99014.22
2017-11-30T06:49:04.834Z,99019.73
2017-11-30T06:51:34.047Z,99012.59
2017-11-30T06:54:03.245Z,99023.38
2017-11-30T06:56:32.442Z,99018.58
2017-11-30T06:59:01.648Z,99015.50
2017-11-30T07:01:30.858Z,99016.59
2017-11-30T07:04:00.057Z,99017.23
2017-11-30T07:06:29.553Z,99015.27
2017-11-30T07:08:58.807Z,99019.28
2017-11-30T07:11:28.096Z,99020.75
2017-11-30T07:13:57.301Z,99016.55
2017-11-30T07:16:26.624Z,99019.81
2017-11-30T07:18:55.832Z,99013.08
2017-11-30T07:21:25.049Z,99018.84
2017-11-30T07:23:54.286Z,99020.57
2017-11-30T07:26:23.510Z,99025.08
2017-11-30T07:28:52.761Z,99024.50
2017-11-30T07:31:21.968Z,99024.20
2017-11-30T07:33:51.937Z,99021.02
2017-11-30T07:36:21.141Z,99027.21
2017-11-30T07:38:50.407Z,99028.00
2017-11-30T07:41:19.663Z,99028.67
2017-11-30T07:43:49.713Z,99031.14
2017-11-30T07:46:18.926Z,99028.53
2017-11-30T07:48:48.325Z,99030.99
2017-11-30T07:51:18.253Z,99026.48
2017-11-30T07:53:47.453Z,99015.70
2017-11-30T07:56:16.673Z,99022.89
2017-11-30T07:58:45.908Z,99024.20
2017-11-30T08:01:15.888Z,99023.05
2017-11-30T08:03:45.124Z,99028.41
2017-11-30T08:06:14.349Z,99029.41
2017-11-30T08:08:43.645Z,99029.17
2017-11-30T08:11:13.648Z,99029.75
2017-11-30T08:13:42.906Z,99028.87
2017-11-30T08:16:12.886Z,99030.05
2017-11-30T08:18:42.080Z,99032.73
2017-11-30T08:21:11.299Z,99032.00
2017-11-30T08:23:40.530Z,99029.35
2017-11-30T08:26:10.557Z,99032.64
2017-11-30T08:28:39.801Z,99029.71
2017-11-30T08:31:08.985Z,99033.82
2017-11-30T08:33:38.317Z,99039.48
2017-11-30T08:36:07.518Z,99024.61
2017-11-30T08:38:36.761Z,99023.02
2017-11-30T08:41:06.749Z,99029.62
2017-11-30T08:43:35.942Z,99027.67
2017-11-30T08:46:05.905Z,99025.67
2017-11-30T08:48:35.127Z,99028.84
2017-11-30T08:51:04.502Z,99028.73
2017-11-30T08:53:33.700Z,99028.28
2017-11-30T08:56:02.881Z,99032.39
2017-11-30T08:58:32.076Z,99025.53
2017-11-30T09:01:01.269Z,99026.61
2017-11-30T09:03:30.469Z,99028.62
2017-11-30T09:05:59.700Z,99028.83
2017-11-30T09:08:28.938Z,99025.75
2017-11-30T09:10:58.117Z,99022.61
2017-11-30T09:13:27.371Z,99027.17
2017-11-30T09:15:56.554Z,99022.36
2017-11-30T09:18:25.752Z,99025.34
2017-11-30T09:20:54.957Z,99021.27
2017-11-30T09:23:24.166Z,99013.84
2017-11-30T09:25:53.398Z,99016.19
2017-11-30T09:28:22.634Z,99019.80
2017-11-30T09:30:52.596Z,99019.73
2017-11-30T09:33:21.808Z,99020.97
2017-11-30T09:35:51.017Z,99022.55
2017-11-30T09:38:20.202Z,99023.00
2017-11-30T09:40:50.384Z,99016.61
2017-11-30T09:43:19.576Z,99020.31
2017-11-30T09:45:48.980Z,99016.72
2017-11-30T09:48:18.153Z,99019.14
2017-11-30T09:50:48.153Z,99014.88
2017-11-30T09:53:18.123Z,99006.84
2017-11-30T09:55:47.364Z,99011.92
2017-11-30T09:58:16.596Z,99011.14
2017-11-30T10:00:45.812Z,99014.42
2017-11-30T10:03:15.038Z,99007.87
2017-11-30T10:05:44.298Z,99003.92
2017-11-30T10:08:13.593Z,99003.45
2017-11-30T10:10:43.552Z,99004.55
2017-11-30T10:13:12.790Z,98999.85
2017-11-30T10:15:42.756Z,98994.52
2017-11-30T10:18:11.971Z,98991.12
2017-11-30T10:20:41.159Z,98988.80
2017-11-30T10:23:10.377Z,98991.64
2017-11-30T10:25:39.584Z,98984.45
2017-11-30T10:28:09.565Z,98991.17
2017-11-30T10:30:38.773Z,98990.78
2017-11-30T10:33:07.994Z,98984.26
2017-11-30T10:35:37.155Z,98991.17
2017-11-30T10:38:06.358Z,98983.70
2017-11-30T10:40:35.584Z,98985.20
2017-11-30T10:43:05.553Z,98985.88
2017-11-30T10:45:34.785Z,98986.00
2017-11-30T10:48:04.012Z,98975.97
2017-11-30T10:50:33.979Z,98973.87
2017-11-30T10:53:03.204Z,98971.81
2017-11-30T10:55:33.189Z,98973.75
2017-11-30T10:58:02.390Z,98970.71
2017-11-30T11:00:31.587Z,98965.05
2017-11-30T11:03:00.781Z,98965.09
2017-11-30T11:05:30.002Z,98961.02
2017-11-30T11:07:59.203Z,98960.66
2017-11-30T11:10:29.195Z,98961.45
2017-11-30T11:12:58.464Z,98955.68
2017-11-30T11:15:27.656Z,98950.42
2017-11-30T11:17:56.859Z,98952.47
2017-11-30T11:20:26.073Z,98949.55
2017-11-30T11:22:55.299Z,98950.84
2017-11-30T11:25:24.504Z,98943.94
2017-11-30T11:27:54.471Z,98944.99
2017-11-30T11:30:23.711Z,98948.23
2017-11-30T11:32:52.945Z,98942.94
2017-11-30T11:35:22.996Z,98945.73
2017-11-30T11:37:52.267Z,98941.94
2017-11-30T11:40:22.454Z,98943.98
2017-11-30T11:42:51.672Z,98943.98
2017-11-30T11:45:21.630Z,98945.17
2017-11-30T11:47:50.880Z,98942.13
2017-11-30T11:50:20.836Z,98942.48
2017-11-30T11:52:50.042Z,98946.36
2017-11-30T11:55:19.236Z,98945.58
2017-11-30T11:57:48.524Z,98943.52
2017-11-30T12:00:17.692Z,98951.98
2017-11-30T12:02:47.692Z,98944.91
2017-11-30T12:05:17.674Z,98947.20
2017-11-30T12:07:46.902Z,98951.58
2017-11-30T12:10:17.000Z,98949.91
2017-11-30T12:12:46.188Z,98957.86
2017-11-30T12:15:15.417Z,98947.98
2017-11-30T12:17:45.360Z,98944.59
2017-11-30T12:20:14.581Z,98945.19
2017-11-30T12:22:43.781Z,98940.24
2017-11-30T12:25:12.993Z,98937.71
2017-11-30T12:27:42.321Z,98945.02
2017-11-30T12:30:11.427Z,98948.52
2017-11-30T12:32:41.432Z,98943.55
2017-11-30T12:35:11.482Z,98942.44
2017-11-30T12:37:40.687Z,98940.48
2017-11-30T12:40:09.888Z,98937.56
2017-11-30T12:42:39.109Z,98939.72
2017-11-30T12:45:08.319Z,98933.89
2017-11-30T12:47:37.524Z,98933.26
2017-11-30T12:50:06.721Z,98925.14
2017-11-30T12:52:35.921Z,98926.80
2017-11-30T12:55:05.130Z,98928.38
2017-11-30T12:57:35.124Z,98924.29
2017-11-30T13:00:04.302Z,98920.41
2017-11-30T13:02:33.578Z,98917.00
2017-11-30T13:05:03.619Z,98916.69
2017-11-30T13:07:32.959Z,98911.24
2017-11-30T13:10:02.951Z,98913.61
2017-11-30T13:12:32.333Z,98907.20
2017-11-30T13:15:01.547Z,98911.47
2017-11-30T13:17:30.767Z,98906.73
2017-11-30T13:20:00.762Z,98909.33
2017-11-30T13:22:29.963Z,98906.20
2017-11-30T13:24:59.174Z,98904.46
2017-11-30T13:27:28.564Z,98913.80
2017-11-30T13:29:57.777Z,98907.55
2017-11-30T13:32:26.986Z,98907.78
2017-11-30T13:34:56.181Z,98906.94
2017-11-30T13:37:26.108Z,98908.28
2017-11-30T13:39:55.319Z,98906.45
2017-11-30T13:42:24.516Z,98905.50
2017-11-30T13:44:53.773Z,98911.00
2017-11-30T13:47:22.971Z,98907.69
2017-11-30T13:49:52.969Z,98917.11
2017-11-30T13:52:22.156Z,98908.39
2017-11-30T13:54:51.339Z,98914.38
2017-11-30T13:57:20.552Z,98920.21
2017-11-30T13:59:49.765Z,98917.47
2017-11-30T14:02:18.999Z,98916.52
2017-11-30T14:04:48.202Z,98918.09
2017-11-30T14:07:17.427Z,98923.24
2017-11-30T14:09:46.638Z,98919.20
2017-11-30T14:12:15.847Z,98922.38
2017-11-30T14:14:46.538Z,98928.06
2017-11-30T14:17:16.067Z,98930.61
2017-11-30T14:19:45.650Z,98935.45
2017-11-30T14:22:14.873Z,98937.91
2017-11-30T14:24:44.863Z,98937.09
2017-11-30T14:27:14.076Z,98933.44
2017-11-30T14:29:43.298Z,98936.63
2017-11-30T14:32:12.747Z,98934.77
2017-11-30T14:34:42.751Z,98937.85
2017-11-30T14:37:11.950Z,98940.06
2017-11-30T14:39:41.924Z,98945.23
2017-11-30T14:42:11.114Z,98938.91
2017-11-30T14:44:40.334Z,98943.45
2017-11-30T14:47:09.539Z,98946.15
2017-11-30T14:49:39.540Z,98954.30
2017-11-30T14:52:08.761Z,98944.15
2017-11-30T14:54:38.752Z,98954.42
2017-11-30T14:57:08.019Z,98955.27
2017-11-30T14:59:37.291Z,98951.39
2017-11-30T15:02:06.656Z,98949.34
2017-11-30T15:04:35.870Z,98951.23
2017-11-30T15:07:05.883Z,98954.59
2017-11-30T15:09:35.091Z,98951.95
2017-11-30T15:12:05.087Z,98950.05
2017-11-30T15:14:34.390Z,98956.61
2017-11-30T15:17:03.607Z,98964.55
2017-11-30T15:19:33.619Z,98963.25
2017-11-30T15:22:03.678Z,98964.95
2017-11-30T15:24:32.873Z,98968.87
2017-11-30T15:27:02.100Z,98966.89
2017-11-30T15:29:31.295Z,98967.02
2017-11-30T15:32:00.516Z,98965.91
2017-11-30T15:34:30.495Z,98966.63
2017-11-30T15:36:59.712Z,98977.30
2017-11-30T15:39:28.974Z,98970.34
2017-11-30T15:41:58.179Z,98970.47
2017-11-30T15:44:27.395Z,98972.13
2017-11-30T15:46:57.388Z,98977.02
2017-11-30T15:49:26.579Z,98979.20
2017-11-30T15:51:55.796Z,98978.41
2017-11-30T15:54:25.123Z,98985.80
2017-11-30T15:56:54.430Z,98979.55
2017-11-30T15:59:23.645Z,98977.66
2017-11-30T16:01:53.690Z,98984.61
2017-11-30T16:04:22.972Z,98986.19
2017-11-30T16:06:52.346Z,98981.53
2017-11-30T16:09:21.587Z,98983.03
2017-11-30T16:11:50.779Z,98986.12
2017-11-30T16:14:19.994Z,98988.69
2017-11-30T16:16:49.276Z,98998.41
2017-11-30T16:19:18.581Z,98987.18
2017-11-30T16:21:48.624Z,98996.66
2017-11-30T16:24:17.898Z,98993.90
2017-11-30T16:26:47.903Z,99004.64
2017-11-30T16:29:17.126Z,99003.50
2017-11-30T16:31:46.555Z,99002.28
2017-11-30T16:34:15.835Z,98996.70
2017-11-30T16:36:45.612Z,98998.28
2017-11-30T16:39:14.807Z,99002.83
2017-11-30T16:41:44.075Z,99002.91
2017-11-30T16:44:14.926Z,99006.62
2017-11-30T16:46:44.892Z,99004.72
2017-11-30T16:49:14.185Z,99006.11
2017-11-30T16:51:43.411Z,99003.89
2017-11-30T16:54:12.631Z,99008.39
2017-11-30T16:56:41.835Z,99006.73
2017-11-30T16:59:11.843Z,99009.02
2017-11-30T17:01:41.888Z,99012.45
2017-11-30T17:04:11.075Z,99012.61
2017-11-30T17:06:40.299Z,99019.40
2017-11-30T17:09:09.533Z,99022.64
2017-11-30T17:11:38.760Z,99017.55
2017-11-30T17:14:08.796Z,99016.47
2017-11-30T17:16:37.996Z,99023.73
2017-11-30T17:19:07.247Z,99024.97
2017-11-30T17:21:36.501Z,99022.92
2017-11-30T17:24:05.702Z,99033.93
2017-11-30T17:26:34.963Z,99030.84
2017-11-30T17:29:04.937Z,99030.93
2017-11-30T17:31:36.351Z,99029.28
2017-11-30T17:34:05.569Z,99031.02
2017-11-30T17:36:34.886Z,99036.55
2017-11-30T17:39:04.075Z,99034.17
2017-11-30T17:41:33.318Z,99038.98
2017-11-30T17:44:02.554Z,99034.17
2017-11-30T17:46:31.763Z,99039.14
2017-11-30T17:49:00.981Z,99039.03
2017-11-30T17:51:30.462Z,99043.97
2017-11-30T17:53:59.694Z,99043.26
2017-11-30T17:56:29.651Z,99044.84
2017-11-30T17:58:58.850Z,99042.07
2017-11-30T18:01:29.689Z,99039.86
2017-11-30T18:03:58.972Z,99053.65
2017-11-30T18:06:28.957Z,99055.43
2017-11-30T18:08:58.235Z,99050.77
2017-11-30T18:11:27.451Z,99050.37
2017-11-30T18:13:56.687Z,99056.84
2017-11-30T18:16:25.878Z,99055.19
2017-11-30T18:18:55.120Z,99055.66
2017-11-30T18:21:24.572Z,99054.88
2017-11-30T18:23:54.464Z,99056.53
2017-11-30T18:26:23.695Z,99059.38
2017-11-30T18:28:52.941Z,99051.23
2017-11-30T18:31:22.146Z,99062.10
2017-11-30T18:33:51.372Z,99063.92
2017-11-30T18:36:21.333Z,99064.33
2017-11-30T18:38:50.557Z,99061.16
2017-11-30T18:41:19.849Z,99056.97
2017-11-30T18:43:49.060Z,99059.42
2017-11-30T18:46:18.317Z,99055.94
2017-11-30T18:48:47.539Z,99062.58
2017-11-30T18:51:16.820Z,99060.30
2017-11-30T18:53:46.041Z,99061.95
2017-11-30T18:56:15.269Z,99072.58
2017-11-30T18:58:44.507Z,99072.34
2017-11-30T19:01:13.731Z,99071.23
2017-11-30T19:03:42.989Z,99071.86
2017-11-30T19:06:12.195Z,99076.09
2017-11-30T19:08:41.487Z,99080.59
2017-11-30T19:11:11.440Z,99077.00
2017-11-30T19:13:40.697Z,99087.62
2017-11-30T19:16:09.949Z,99084.81
2017-11-30T19:18:39.202Z,99090.55
2017-11-30T19:21:08.364Z,99086.52
2017-11-30T19:23:38.387Z,99084.07
2017-11-30T19:26:08.452Z,99093.16
2017-11-30T19:28:37.660Z,99095.54
2017-11-30T19:31:06.904Z,99093.25
2017-11-30T19:33:37.055Z,99091.63
2017-11-30T19:36:06.368Z,99090.56
2017-11-30T19:38:35.558Z,99091.73
2017-11-30T19:41:06.646Z,99093.72
2017-11-30T19:43:36.671Z,99096.09
2017-11-30T19:46:06.642Z,99098.73
2017-11-30T19:48:36.679Z,99095.59
2017-11-30T19:51:05.935Z,99096.22
2017-11-30T19:53:35.237Z,99103.57
2017-11-30T19:56:04.543Z,99104.33
2017-11-30T19:58:33.803Z,99104.80
2017-11-30T20:01:03.797Z,99112.52
2017-11-30T20:03:33.003Z,99106.67
2017-11-30T20:06:03.085Z,99116.94
2017-11-30T20:08:32.284Z,99109.67
2017-11-30T20:11:01.455Z,99118.44
2017-11-30T20:13:30.815Z,99122.11
2017-11-30T20:16:00.769Z,99121.56
2017-11-30T20:18:30.000Z,99123.70
2017-11-30T20:20:59.204Z,99121.56
2017-11-30T20:23:28.439Z,99125.02
2017-11-30T20:25:58.501Z,99124.78
2017-11-30T20:28:27.749Z,99126.96
2017-11-30T20:30:57.730Z,99131.94
2017-11-30T20:33:27.056Z,99134.63
2017-11-30T20:35:57.630Z,99133.44
2017-11-30T20:38:26.860Z,99137.77
2017-11-30T20:40:56.144Z,99141.72
2017-11-30T20:43:25.369Z,99140.25
2017-11-30T20:45:55.384Z,99145.08
2017-11-30T20:48:24.601Z,99150.05
2017-11-30T20:50:53.873Z,99150.33
2017-11-30T20:53:23.082Z,99146.42
2017-11-30T20:55:53.099Z,99146.02
2017-11-30T20:58:23.158Z,99154.23
2017-11-30T21:00:52.383Z,99154.84
2017-11-30T21:03:21.618Z,99150.41
2017-11-30T21:05:51.561Z,99152.09
2017-11-30T21:08:20.931Z,99162.67
2017-11-30T21:10:50.142Z,99161.84
2017-11-30T21:13:19.415Z,99163.83
2017-11-30T21:15:48.665Z,99155.92
2017-11-30T21:18:17.945Z,99161.97
2017-11-30T21:20:47.919Z,99163.73
2017-11-30T21:23:17.147Z,99161.58
2017-11-30T21:25:47.159Z,99161.23
2017-11-30T21:28:17.256Z,99158.61
2017-11-30T21:30:46.495Z,99156.95
2017-11-30T21:33:15.758Z,99166.27
2017-11-30T21:35:45.743Z,99167.62
2017-11-30T21:38:15.087Z,99169.91
2017-11-30T21:40:44.308Z,99173.72
2017-11-30T21:43:13.613Z,99172.61
2017-11-30T21:45:43.595Z,99181.22
2017-11-30T21:48:13.637Z,99178.78
2017-11-30T21:50:43.639Z,99182.41
2017-11-30T21:53:13.709Z,99183.27
2017-11-30T21:55:43.008Z,99189.20
2017-11-30T21:58:12.195Z,99193.08
2017-11-30T22:00:41.430Z,99194.66
2017-11-30T22:03:11.664Z,99188.82
2017-11-30T22:05:41.635Z,99195.19
2017-11-30T22:08:11.640Z,99195.13
2017-11-30T22:10:40.863Z,99201.34
2017-11-30T22:13:10.046Z,99202.92
2017-11-30T22:15:39.355Z,99199.84
2017-11-30T22:18:08.568Z,99201.65
2017-11-30T22:20:37.799Z,99206.14
2017-11-30T22:23:07.776Z,99211.00
2017-11-30T22:25:37.013Z,99218.36
2017-11-30T22:28:07.024Z,99209.02
2017-11-30T22:30:36.980Z,99218.34
2017-11-30T22:33:06.203Z,99220.14
2017-11-30T22:35:35.392Z,99224.11
2017-11-30T22:38:06.130Z,99232.90
2017-11-30T22:40:35.403Z,99234.70
2017-11-30T22:43:04.637Z,99233.91
2017-11-30T22:45:33.824Z,99228.84
2017-11-30T22:48:03.402Z,99230.38
2017-11-30T22:50:32.650Z,99233.77
2017-11-30T22:53:02.613Z,99236.91
2017-11-30T22:55:32.013Z,99238.80
2017-11-30T22:58:01.219Z,99246.06
2017-11-30T23:00:43.185Z,99250.12
2017-11-30T23:03:13.140Z,99254.20
2017-11-30T23:05:42.614Z,99258.26
2017-11-30T23:08:11.845Z,99264.86
2017-11-30T23:10:41.129Z,99259.73
2017-11-30T23:13:10.351Z,99265.54
2017-11-30T23:15:39.558Z,99272.62
2017-11-30T23:18:08.833Z,99273.81
2017-11-30T23:20:38.040Z,99271.58
2017-11-30T23:23:07.241Z,99276.03
2017-11-30T23:25:36.444Z,99277.73
2017-11-30T23:28:05.709Z,99274.98
2017-11-30T23:30:34.892Z,99281.89
2017-11-30T23:33:04.103Z,99282.45
2017-11-30T23:35:33.296Z,99281.22
2017-11-30T23:38:02.592Z,99286.38
2017-11-30T23:40:31.796Z,99287.09
2017-11-30T23:43:01.009Z,99284.34
2017-11-30T23:45:30.203Z,99286.45
2017-11-30T23:47:59.422Z,99284.20
2017-11-30T23:50:28.745Z,99289.79
2017-11-30T23:52:57.963Z,99290.59
2017-11-30T23:55:27.950Z,99295.80
2017-11-30T23:57:57.929Z,99292.78
